createdAt,value
2023-03-21T00:00:40.138Z,8.23
2023-03-21T00:03:06.937Z,8.23
2023-03-21T00:05:33.580Z,8.24
2023-03-21T00:08:01.880Z,8.24
2023-03-21T00:10:39.465Z,8.22
2023-03-21T00:13:07.879Z,8.23
2023-03-21T00:15:48.327Z,8.26
2023-03-21T00:18:23.022Z,8.25
2023-03-21T00:21:39.220Z,8.27
2023-03-21T00:23:55.810Z,8.25
2023-03-21T00:26:23.781Z,8.22
2023-03-21T00:28:51.084Z,8.23
2023-03-21T00:31:19.772Z,8.24
2023-03-21T00:33:47.905Z,8.20
2023-03-21T00:36:15.950Z,8.21
2023-03-21T00:38:43.033Z,8.21
2023-03-21T00:41:23.177Z,8.20
2023-03-21T00:43:58.248Z,8.19
2023-03-21T00:46:27.663Z,8.22
2023-03-21T00:48:56.577Z,8.21
2023-03-21T00:51:27.239Z,8.20
2023-03-21T00:53:59.524Z,8.22
2023-03-21T00:56:26.078Z,8.23
2023-03-21T00:58:52.634Z,8.22
2023-03-21T01:01:19.513Z,8.21
2023-03-21T01:03:48.156Z,8.22
2023-03-21T01:06:19.308Z,8.17
2023-03-21T01:08:54.814Z,8.23
2023-03-21T01:11:25.305Z,8.20
2023-03-21T01:13:59.694Z,8.17
2023-03-21T01:16:31.751Z,8.23
2023-03-21T01:18:59.652Z,8.20
2023-03-21T01:21:26.361Z,8.20
2023-03-21T01:23:52.987Z,8.19
2023-03-21T01:26:19.502Z,8.18
2023-03-21T01:28:46.381Z,8.21
2023-03-21T01:31:15.452Z,8.22
2023-03-21T01:33:42.985Z,8.19
2023-03-21T01:36:23.897Z,8.18
2023-03-21T01:38:51.860Z,8.19
2023-03-21T01:41:26.290Z,8.20
2023-03-21T01:43:56.031Z,8.22
2023-03-21T01:47:03.924Z,8.20
2023-03-21T01:49:39.284Z,8.22
2023-03-21T01:52:15.130Z,8.18
2023-03-21T01:54:47.668Z,8.18
2023-03-21T01:57:22.611Z,8.19
2023-03-21T01:59:54.570Z,8.20
2023-03-21T02:02:27.240Z,8.20
2023-03-21T02:04:58.182Z,8.19
2023-03-21T02:07:35.817Z,8.19
2023-03-21T02:10:10.162Z,8.18
2023-03-21T02:12:37.318Z,8.18
2023-03-21T02:15:04.964Z,8.19
2023-03-21T02:17:42.205Z,8.17
2023-03-21T02:20:54.395Z,8.19
2023-03-21T02:23:39.544Z,8.21
2023-03-21T02:26:19.706Z,8.18
2023-03-21T02:28:53.610Z,8.17
2023-03-21T02:31:28.876Z,8.18
2023-03-21T02:34:27.423Z,8.18
2023-03-21T02:36:56.562Z,8.17
2023-03-21T02:39:41.337Z,8.19
2023-03-21T02:42:15.799Z,8.20
2023-03-21T02:44:58.226Z,8.17
2023-03-21T02:47:42.073Z,7.93
2023-03-21T02:50:15.633Z,8.18
2023-03-21T02:52:48.307Z,7.92
2023-03-21T02:55:22.079Z,7.98
2023-03-21T02:58:13.485Z,8.03
2023-03-21T03:00:40.612Z,8.09
2023-03-21T03:03:14.097Z,8.06
2023-03-21T03:05:55.309Z,7.82
2023-03-21T03:08:45.248Z,7.99
2023-03-21T03:11:29.561Z,7.82
2023-03-21T03:15:00.169Z,8.15
2023-03-21T03:17:46.580Z,7.86
2023-03-21T03:20:41.747Z,8.11
2023-03-21T03:23:27.801Z,8.16
2023-03-21T03:26:25.764Z,8.14
2023-03-21T03:28:58.443Z,7.53
2023-03-21T03:31:33.008Z,7.60
2023-03-21T03:34:07.206Z,8.08
2023-03-21T03:36:44.947Z,7.77
2023-03-21T03:39:15.955Z,7.83
2023-03-21T03:42:25.554Z,7.90
2023-03-21T03:44:55.117Z,8.02
2023-03-21T03:47:33.749Z,7.81
2023-03-21T03:52:58.679Z,7.65
2023-03-21T03:55:35.669Z,7.83
2023-03-21T03:58:36.194Z,8.06
2023-03-21T04:01:12.619Z,7.86
2023-03-21T04:03:50.656Z,7.72
2023-03-21T04:06:23.046Z,7.93
2023-03-21T04:08:51.087Z,7.78
2023-03-21T04:11:20.542Z,7.72
2023-03-21T04:13:52.262Z,7.61
2023-03-21T04:16:22.460Z,7.83
2023-03-21T04:18:52.562Z,7.62
2023-03-21T04:21:19.876Z,8.02
2023-03-21T04:23:49.200Z,7.52
2023-03-21T04:26:21.279Z,8.01
2023-03-21T04:28:52.877Z,8.02
2023-03-21T04:31:33.753Z,7.84
2023-03-21T04:34:14.493Z,8.02
2023-03-21T04:36:51.908Z,7.54
2023-03-21T04:39:18.510Z,7.93
2023-03-21T04:41:52.286Z,7.73
2023-03-21T04:44:19.387Z,7.65
2023-03-21T04:46:48.338Z,7.84
2023-03-21T04:49:19.077Z,8.00
2023-03-21T04:51:53.648Z,7.68
2023-03-21T04:54:25.381Z,7.75
2023-03-21T04:56:52.249Z,7.68
2023-03-21T04:59:21.513Z,7.46
2023-03-21T05:01:52.145Z,7.67
2023-03-21T05:04:22.081Z,7.63
2023-03-21T05:06:51.399Z,7.94
2023-03-21T05:09:18.493Z,7.66
2023-03-21T05:11:47.424Z,7.87
2023-03-21T05:14:20.190Z,7.85
2023-03-21T05:16:55.600Z,7.87
2023-03-21T05:19:26.510Z,7.88
2023-03-21T05:21:53.316Z,7.86
2023-03-21T05:24:22.392Z,7.87
2023-03-21T05:26:50.908Z,7.89
2023-03-21T05:29:19.426Z,7.86
2023-03-21T05:31:46.435Z,7.87
2023-03-21T05:34:14.666Z,7.88
2023-03-21T05:36:41.728Z,7.89
2023-03-21T05:39:08.816Z,7.85
2023-03-21T05:41:36.665Z,7.85
2023-03-21T05:44:05.895Z,7.87
2023-03-21T05:46:32.462Z,7.86
2023-03-21T05:48:58.998Z,7.85
2023-03-21T05:51:25.617Z,7.88
2023-03-21T05:53:52.302Z,7.87
2023-03-21T05:56:19.512Z,7.88
2023-03-21T05:58:46.582Z,7.86
2023-03-21T06:01:13.203Z,7.87
2023-03-21T06:03:39.876Z,7.88
2023-03-21T06:06:08.156Z,7.86
2023-03-21T06:08:35.352Z,7.87
2023-03-21T06:11:02.167Z,7.90
2023-03-21T06:13:29.677Z,7.91
2023-03-21T06:15:57.249Z,7.89
2023-03-21T06:18:24.980Z,7.86
2023-03-21T06:20:54.416Z,7.89
2023-03-21T06:23:21.025Z,7.88
2023-03-21T06:25:48.430Z,7.89
2023-03-21T06:28:15.063Z,7.92
2023-03-21T06:30:41.883Z,7.94
2023-03-21T06:33:12.526Z,7.94
2023-03-21T06:35:40.302Z,7.93
2023-03-21T06:38:09.052Z,7.95
2023-03-21T06:40:38.648Z,7.98
2023-03-21T06:43:05.367Z,7.97
2023-03-21T06:45:33.098Z,7.98
2023-03-21T06:48:00.123Z,7.98
2023-03-21T06:50:26.763Z,7.96
2023-03-21T06:52:53.307Z,7.91
2023-03-21T06:55:23.030Z,7.97
2023-03-21T06:57:49.568Z,7.94
2023-03-21T07:00:16.648Z,7.99
2023-03-21T07:02:46.442Z,8.01
2023-03-21T07:05:13.079Z,7.98
2023-03-21T07:07:40.382Z,7.99
2023-03-21T07:10:07.976Z,8.05
2023-03-21T07:12:35.878Z,8.08
2023-03-21T07:15:04.481Z,8.06
2023-03-21T07:17:31.465Z,8.05
2023-03-21T07:19:58.133Z,8.06
2023-03-21T07:22:24.841Z,8.08
2023-03-21T07:25:03.978Z,8.10
2023-03-21T07:27:31.474Z,8.15
2023-03-21T07:29:58.090Z,8.16
2023-03-21T07:32:24.659Z,8.16
2023-03-21T07:34:51.300Z,8.21
2023-03-21T07:37:17.853Z,8.17
2023-03-21T07:39:45.444Z,8.21
2023-03-21T07:42:13.335Z,8.23
2023-03-21T07:44:42.739Z,8.24
2023-03-21T07:47:09.402Z,8.26
2023-03-21T07:49:37.723Z,8.30
2023-03-21T07:52:05.181Z,8.27
2023-03-21T07:54:31.757Z,8.26
2023-03-21T07:56:59.408Z,8.31
2023-03-21T07:59:26.050Z,8.30
2023-03-21T08:01:52.727Z,8.34
2023-03-21T08:04:19.289Z,8.34
2023-03-21T08:06:46.206Z,8.34
2023-03-21T08:09:12.837Z,8.35
2023-03-21T08:11:40.282Z,8.37
2023-03-21T08:14:06.924Z,8.42
2023-03-21T08:16:33.529Z,8.41
2023-03-21T08:19:00.455Z,8.45
2023-03-21T08:21:27.559Z,8.44
2023-03-21T08:23:54.242Z,8.46
2023-03-21T08:26:21.454Z,8.44
2023-03-21T08:28:48.039Z,8.51
2023-03-21T08:31:15.107Z,8.54
2023-03-21T08:33:41.734Z,8.56
2023-03-21T08:36:08.987Z,8.58
2023-03-21T08:38:35.981Z,8.61
2023-03-21T08:41:03.279Z,8.62
2023-03-21T08:43:30.447Z,8.65
2023-03-21T08:45:57.092Z,8.64
2023-03-21T08:48:23.710Z,8.62
2023-03-21T08:50:50.397Z,8.64
2023-03-21T08:53:16.937Z,8.66
2023-03-21T08:55:44.663Z,8.67
2023-03-21T08:58:11.356Z,8.68
2023-03-21T09:00:38.239Z,8.77
2023-03-21T09:03:05.009Z,8.81
2023-03-21T09:05:31.935Z,8.89
2023-03-21T09:07:58.524Z,8.82
2023-03-21T09:10:25.156Z,8.91
2023-03-21T09:12:54.125Z,9.01
2023-03-21T09:15:24.448Z,9.09
2023-03-21T09:17:54.253Z,9.15
2023-03-21T09:20:26.356Z,9.22
2023-03-21T09:22:53.763Z,9.31
2023-03-21T09:25:21.219Z,9.30
2023-03-21T09:27:48.032Z,9.41
2023-03-21T09:30:17.074Z,9.54
2023-03-21T09:32:48.477Z,9.68
2023-03-21T09:35:19.640Z,9.68
2023-03-21T09:37:47.814Z,9.81
2023-03-21T09:40:20.059Z,9.85
2023-03-21T09:43:10.559Z,9.89
2023-03-21T09:45:48.048Z,10.04
2023-03-21T09:48:30.295Z,10.03
2023-03-21T09:50:57.902Z,10.06
2023-03-21T09:53:39.028Z,10.15
2023-03-21T09:56:08.239Z,10.14
2023-03-21T09:58:42.179Z,10.17
2023-03-21T10:01:34.282Z,10.21
2023-03-21T10:04:04.773Z,10.24
2023-03-21T10:06:34.301Z,10.16
2023-03-21T10:09:06.683Z,10.28
2023-03-21T10:11:54.206Z,10.29
2023-03-21T10:14:33.027Z,10.16
2023-03-21T10:17:16.457Z,10.16
2023-03-21T10:19:46.482Z,10.09
2023-03-21T10:22:13.066Z,10.18
2023-03-21T10:24:39.682Z,10.08
2023-03-21T10:27:06.297Z,10.13
2023-03-21T10:29:42.367Z,10.21
2023-03-21T10:32:13.449Z,10.30
2023-03-21T10:34:48.096Z,10.29
2023-03-21T10:37:16.850Z,10.36
2023-03-21T10:39:46.762Z,10.44
2023-03-21T10:42:29.354Z,10.51
2023-03-21T10:44:57.596Z,10.62
2023-03-21T10:47:33.568Z,10.65
2023-03-21T10:50:08.931Z,10.82
2023-03-21T10:52:38.669Z,10.69
2023-03-21T10:55:32.056Z,10.79
2023-03-21T10:58:08.412Z,10.81
2023-03-21T11:00:41.319Z,10.82
2023-03-21T11:03:21.328Z,10.75
2023-03-21T11:05:49.035Z,10.72
2023-03-21T11:08:18.839Z,10.69
2023-03-21T11:11:05.143Z,10.67
2023-03-21T11:13:39.578Z,10.66
2023-03-21T11:16:12.256Z,10.65
2023-03-21T11:18:42.466Z,10.71
2023-03-21T11:21:12.526Z,10.67
2023-03-21T11:23:46.978Z,10.74
2023-03-21T11:26:36.625Z,10.76
2023-03-21T11:29:34.744Z,10.87
2023-03-21T11:32:11.521Z,10.92
2023-03-21T11:34:50.781Z,10.87
2023-03-21T11:37:29.952Z,10.94
2023-03-21T11:40:06.310Z,10.87
2023-03-21T11:42:41.046Z,10.91
2023-03-21T11:45:12.145Z,10.82
2023-03-21T11:47:39.663Z,10.87
2023-03-21T11:50:17.200Z,10.88
2023-03-21T11:52:56.339Z,11.09
2023-03-21T11:55:32.227Z,11.23
2023-03-21T11:58:18.994Z,11.38
2023-03-21T12:01:14.342Z,11.37
2023-03-21T12:04:07.476Z,11.50
2023-03-21T12:06:36.237Z,11.54
2023-03-21T12:09:25.263Z,11.50
2023-03-21T12:12:10.448Z,11.34
2023-03-21T12:14:55.462Z,11.26
2023-03-21T12:17:37.202Z,11.10
2023-03-21T12:20:29.205Z,10.86
2023-03-21T12:23:28.562Z,10.86
2023-03-21T12:26:04.142Z,10.97
2023-03-21T12:28:42.591Z,11.15
2023-03-21T12:31:22.173Z,11.35
2023-03-21T12:34:00.828Z,11.71
2023-03-21T12:36:51.681Z,11.93
2023-03-21T12:39:31.567Z,12.21
2023-03-21T12:42:13.361Z,12.27
2023-03-21T12:44:46.630Z,12.32
2023-03-21T12:47:23.470Z,12.40
2023-03-21T12:49:56.400Z,12.39
2023-03-21T12:52:29.248Z,12.27
2023-03-21T12:55:05.209Z,12.21
2023-03-21T12:57:51.077Z,12.45
2023-03-21T13:00:28.224Z,12.66
2023-03-21T13:03:20.973Z,12.84
2023-03-21T13:05:59.121Z,12.80
2023-03-21T13:08:33.626Z,12.96
2023-03-21T13:11:01.839Z,12.84
2023-03-21T13:13:44.325Z,12.73
2023-03-21T13:16:23.258Z,12.82
2023-03-21T13:18:50.348Z,12.73
2023-03-21T13:21:35.813Z,12.87
2023-03-21T13:24:05.864Z,12.97
2023-03-21T13:26:46.082Z,12.81
2023-03-21T13:29:19.586Z,12.83
2023-03-21T13:31:52.395Z,12.42
2023-03-21T13:34:23.889Z,12.28
2023-03-21T13:36:52.555Z,12.20
2023-03-21T13:39:28.565Z,12.03
2023-03-21T13:41:55.997Z,12.01
2023-03-21T13:44:36.257Z,11.96
2023-03-21T13:47:06.061Z,11.86
2023-03-21T13:49:37.718Z,11.80
2023-03-21T13:52:09.983Z,11.74
2023-03-21T13:54:53.504Z,11.66
2023-03-21T13:57:38.768Z,11.57
2023-03-21T14:00:17.735Z,11.60
2023-03-21T14:02:57.428Z,11.75
2023-03-21T14:05:25.872Z,11.77
2023-03-21T14:08:06.142Z,11.66
2023-03-21T14:10:45.110Z,11.60
2023-03-21T14:13:19.127Z,11.57
2023-03-21T14:15:59.942Z,11.41
2023-03-21T14:18:52.360Z,11.35
2023-03-21T14:21:27.156Z,11.41
2023-03-21T14:23:59.612Z,11.36
2023-03-21T14:26:33.102Z,11.32
2023-03-21T14:29:05.197Z,11.38
2023-03-21T14:31:33.318Z,11.40
2023-03-21T14:34:01.983Z,11.35
2023-03-21T14:36:35.956Z,11.32
2023-03-21T14:39:12.251Z,11.33
2023-03-21T14:41:56.508Z,11.21
2023-03-21T14:44:26.104Z,11.22
2023-03-21T14:47:07.113Z,11.26
2023-03-21T14:49:36.311Z,11.14
2023-03-21T14:52:08.027Z,11.14
2023-03-21T14:54:34.686Z,11.11
2023-03-21T14:57:10.510Z,11.09
2023-03-21T14:59:39.052Z,11.03
2023-03-21T15:02:33.372Z,10.98
2023-03-21T15:05:09.964Z,11.03
2023-03-21T15:07:36.531Z,11.08
2023-03-21T15:10:19.297Z,11.10
2023-03-21T15:12:58.417Z,11.31
2023-03-21T15:15:27.691Z,11.33
2023-03-21T15:17:55.975Z,11.35
2023-03-21T15:20:27.217Z,11.26
2023-03-21T15:23:02.481Z,11.26
2023-03-21T15:25:34.149Z,11.11
2023-03-21T15:28:01.011Z,11.02
2023-03-21T15:30:29.680Z,10.94
2023-03-21T15:32:58.516Z,10.86
2023-03-21T15:35:31.887Z,10.86
2023-03-21T15:37:59.915Z,10.80
2023-03-21T15:40:32.068Z,10.83
2023-03-21T15:43:20.492Z,10.75
2023-03-21T15:45:56.362Z,10.71
2023-03-21T15:48:28.835Z,10.73
2023-03-21T15:50:55.310Z,10.69
2023-03-21T15:53:23.433Z,10.67
2023-03-21T15:55:57.051Z,10.66
2023-03-21T15:58:34.666Z,10.67
2023-03-21T16:01:05.715Z,10.63
2023-03-21T16:03:36.380Z,10.62
2023-03-21T16:06:12.656Z,10.60
2023-03-21T16:08:47.038Z,10.52
2023-03-21T16:11:25.846Z,10.50
2023-03-21T16:13:53.540Z,10.44
2023-03-21T16:16:21.560Z,10.35
2023-03-21T16:18:49.252Z,10.31
2023-03-21T16:21:18.538Z,10.34
2023-03-21T16:23:46.342Z,10.16
2023-03-21T16:26:27.611Z,10.18
2023-03-21T16:28:54.523Z,10.15
2023-03-21T16:31:23.705Z,10.16
2023-03-21T16:33:51.365Z,10.19
2023-03-21T16:36:36.713Z,10.22
2023-03-21T16:39:11.844Z,10.23
2023-03-21T16:41:38.365Z,10.24
2023-03-21T16:44:04.876Z,10.28
2023-03-21T16:46:31.500Z,10.28
2023-03-21T16:48:58.534Z,10.33
2023-03-21T16:51:30.580Z,10.29
2023-03-21T16:53:57.974Z,10.30
2023-03-21T16:56:37.514Z,10.28
2023-03-21T16:59:05.977Z,10.29
2023-03-21T17:01:33.643Z,10.28
2023-03-21T17:04:00.430Z,10.30
2023-03-21T17:06:29.973Z,10.22
2023-03-21T17:08:58.104Z,10.35
2023-03-21T17:11:27.341Z,10.31
2023-03-21T17:13:54.927Z,10.30
2023-03-21T17:16:26.587Z,10.30
2023-03-21T17:18:53.541Z,10.19
2023-03-21T17:21:25.816Z,10.11
2023-03-21T17:23:53.299Z,10.07
2023-03-21T17:26:22.937Z,9.92
2023-03-21T17:28:50.338Z,9.91
2023-03-21T17:31:19.925Z,9.98
2023-03-21T17:33:47.140Z,9.94
2023-03-21T17:36:16.197Z,9.91
2023-03-21T17:38:43.866Z,9.84
2023-03-21T17:41:17.832Z,9.84
2023-03-21T17:43:44.850Z,9.76
2023-03-21T17:46:14.057Z,9.77
2023-03-21T17:48:41.279Z,9.68
2023-03-21T17:51:08.706Z,9.64
2023-03-21T17:53:35.484Z,9.62
2023-03-21T17:56:02.105Z,9.54
2023-03-21T17:58:28.741Z,9.61
2023-03-21T18:00:55.445Z,9.62
2023-03-21T18:03:22.053Z,9.64
2023-03-21T18:05:48.693Z,9.65
2023-03-21T18:08:15.529Z,9.68
2023-03-21T18:10:42.760Z,9.70
2023-03-21T18:13:10.312Z,9.66
2023-03-21T18:15:38.242Z,9.59
2023-03-21T18:18:05.401Z,9.56
2023-03-21T18:20:51.262Z,9.57
2023-03-21T18:23:19.490Z,9.59
2023-03-21T18:25:46.578Z,9.56
2023-03-21T18:28:13.963Z,9.51
2023-03-21T18:31:09.673Z,9.57
2023-03-21T18:33:28.591Z,9.53
2023-03-21T18:35:59.564Z,9.56
2023-03-21T18:38:27.793Z,9.60
2023-03-21T18:40:54.984Z,9.51
2023-03-21T18:46:08.693Z,9.37
2023-03-21T18:48:35.859Z,9.41
2023-03-21T18:51:03.166Z,9.36
2023-03-21T18:53:30.212Z,9.28
2023-03-21T18:55:57.569Z,9.30
2023-03-21T18:58:24.852Z,9.26
2023-03-21T19:00:53.548Z,9.19
2023-03-21T19:03:34.247Z,9.15
2023-03-21T19:06:03.858Z,9.20
2023-03-21T19:08:31.115Z,9.32
2023-03-21T19:11:00.147Z,9.34
2023-03-21T19:13:28.262Z,9.31
2023-03-21T19:15:56.171Z,9.25
2023-03-21T19:18:53.427Z,9.20
2023-03-21T19:21:09.691Z,9.21
2023-03-21T19:24:07.951Z,9.10
2023-03-21T19:26:26.637Z,9.08
2023-03-21T19:28:54.130Z,9.04
2023-03-21T19:31:21.968Z,9.04
2023-03-21T19:33:48.736Z,9.04
2023-03-21T19:36:21.766Z,8.98
2023-03-21T19:38:49.181Z,9.03
2023-03-21T19:41:16.414Z,8.91
2023-03-21T19:43:53.181Z,8.86
2023-03-21T19:46:24.673Z,8.81
2023-03-21T19:48:51.556Z,8.65
2023-03-21T19:51:28.119Z,8.80
2023-03-21T19:53:55.823Z,8.79
2023-03-21T19:56:26.608Z,8.75
2023-03-21T19:58:54.371Z,8.73
2023-03-21T20:01:21.270Z,8.63
2023-03-21T20:03:47.972Z,8.60
2023-03-21T20:06:14.686Z,8.54
2023-03-21T20:11:28.052Z,8.51
2023-03-21T20:13:54.756Z,8.45
2023-03-21T20:16:21.602Z,8.48
2023-03-21T20:18:48.254Z,8.44
2023-03-21T20:21:18.088Z,8.49
2023-03-21T20:23:50.928Z,8.53
2023-03-21T20:26:17.767Z,8.54
2023-03-21T20:28:56.717Z,8.49
2023-03-21T20:31:30.906Z,8.50
2023-03-21T20:33:57.568Z,8.45
2023-03-21T20:36:38.862Z,8.52
2023-03-21T20:39:07.032Z,8.54
2023-03-21T20:41:33.544Z,8.59
2023-03-21T20:46:49.537Z,8.65
2023-03-21T20:49:16.193Z,8.64
2023-03-21T20:54:30.063Z,8.63
2023-03-21T20:56:57.294Z,8.64
2023-03-21T20:59:27.583Z,8.55
2023-03-21T21:01:58.258Z,8.64
2023-03-21T21:04:46.742Z,8.60
2023-03-21T21:07:17.206Z,8.62
2023-03-21T21:09:45.218Z,8.63
2023-03-21T21:12:12.949Z,8.54
2023-03-21T21:14:40.341Z,8.56
2023-03-21T21:17:24.562Z,8.58
2023-03-21T21:19:54.444Z,8.58
2023-03-21T21:22:21.109Z,8.57
2023-03-21T21:24:48.012Z,8.58
2023-03-21T21:27:14.630Z,8.57
2023-03-21T21:29:43.362Z,8.56
2023-03-21T21:32:10.247Z,8.62
2023-03-21T21:34:37.419Z,8.61
2023-03-21T21:37:04.191Z,8.61
2023-03-21T21:39:37.779Z,8.56
2023-03-21T21:42:05.241Z,8.61
2023-03-21T21:44:31.834Z,8.58
2023-03-21T21:46:58.880Z,8.58
2023-03-21T21:49:25.506Z,8.59
2023-03-21T21:51:52.517Z,8.57
2023-03-21T21:54:19.154Z,8.49
2023-03-21T21:56:48.572Z,8.55
2023-03-21T21:59:22.111Z,8.57
2023-03-21T22:01:51.394Z,8.55
2023-03-21T22:04:24.844Z,8.57
2023-03-21T22:06:51.422Z,8.52
2023-03-21T22:09:18.232Z,8.51
2023-03-21T22:11:44.839Z,8.52
2023-03-21T22:14:11.388Z,8.45
2023-03-21T22:16:38.017Z,8.49
2023-03-21T22:19:04.896Z,8.38
2023-03-21T22:21:34.973Z,8.49
2023-03-21T22:24:01.513Z,8.47
2023-03-21T22:26:28.094Z,8.56
2023-03-21T22:28:54.811Z,8.56
2023-03-21T22:31:22.617Z,8.50
2023-03-21T22:33:49.855Z,8.55
2023-03-21T22:36:16.397Z,8.47
2023-03-21T22:38:43.928Z,8.46
2023-03-21T22:41:10.859Z,8.46
2023-03-21T22:43:37.501Z,8.45
2023-03-21T22:46:06.584Z,8.40
2023-03-21T22:48:38.067Z,8.36
2023-03-21T22:51:07.115Z,8.33
2023-03-21T22:53:33.958Z,8.36
2023-03-21T22:56:00.728Z,8.35
2023-03-21T22:58:27.389Z,8.34
2023-03-21T23:00:53.938Z,8.22
2023-03-21T23:03:20.777Z,8.09
2023-03-21T23:05:47.255Z,8.14
2023-03-21T23:08:13.804Z,8.10
2023-03-21T23:10:45.432Z,8.07
2023-03-21T23:13:12.406Z,8.02
2023-03-21T23:15:39.723Z,8.04
2023-03-21T23:18:06.735Z,8.07
2023-03-21T23:20:33.312Z,8.07
2023-03-21T23:22:59.845Z,8.01
2023-03-21T23:25:28.983Z,8.01
2023-03-21T23:27:55.634Z,7.95
2023-03-21T23:30:22.224Z,8.00
2023-03-21T23:32:49.585Z,8.00
2023-03-21T23:35:16.385Z,8.00
2023-03-21T23:37:52.315Z,7.97
2023-03-21T23:40:19.924Z,7.95
2023-03-21T23:42:46.775Z,7.94
2023-03-21T23:45:13.777Z,7.93
2023-03-21T23:47:40.831Z,7.83
2023-03-21T23:50:09.725Z,8.03
2023-03-21T23:52:37.094Z,7.98
2023-03-21T23:55:05.019Z,7.98
2023-03-21T23:57:31.976Z,7.94
2023-03-21T23:59:58.634Z,7.90
